Time;durP1;ratioP1;P1;durP2;ratioP2;P2;SDS_P1;SDS_P2;PMS_P1;PMS_P2;Temp;Humidity;BMP_temperature;BMP_pressure;BME280_temperature;BME280_humidity;BME280_pressure;Samples;Min_cycle;Max_cycle;Signal;HPM_P1;HPM_P2
2023/03/24 00:19:13;;;;;;;106.40;62.50;;;;;;;7.74;71.27;100819.86;111672;1244;58344;-96
2023/03/24 00:27:30;;;;;;;94.30;56.90;;;;;;;7.64;72.13;100815.76;111404;1244;65448;-96
2023/03/24 00:31:17;;;;;;;92.80;58.20;;;;;;;7.65;72.34;100818.86;109479;1252;72489;-96
2023/03/24 00:33:50;;;;;;;88.70;55.00;;;;;;;7.65;72.40;100818.51;109828;1248;61196;-96
2023/03/24 00:37:12;;;;;;;90.90;56.80;;;;;;;7.63;72.25;100823.48;110570;1248;59744;-96
2023/03/24 00:40:07;;;;;;;98.70;56.80;;;;;;;7.57;72.28;100823.56;109710;1251;73969;-96
2023/03/24 00:48:27;;;;;;;93.10;57.60;;;;;;;7.48;72.28;100822.03;105930;1281;59720;-93
2023/03/24 02:28:52;;;;;;;;;;;;;;;;;;;;;
2023/03/24 02:33:31;;;;;;;82.10;46.00;;;;;;;6.84;75.56;100854.47;108747;1270;63036;-95
2023/03/24 02:38:37;;;;;;;;;;;;;;;;;;;;;
2023/03/24 03:01:58;;;;;;;60.90;37.50;;;;;;;6.75;75.49;100871.17;106948;1264;60035;-96
2023/03/24 03:05:12;;;;;;;51.90;34.60;;;;;;;6.79;76.37;100873.45;107535;1264;73183;-96
2023/03/24 03:07:41;;;;;;;57.90;35.20;;;;;;;6.87;76.99;100877.50;107437;1263;61903;-96
2023/03/24 03:10:39;;;;;;;46.30;27.30;;;;;;;6.98;77.47;100882.61;107743;1264;71623;-96
2023/03/24 03:14:17;;;;;;;35.80;24.00;;;;;;;7.14;77.89;100871.17;108335;1265;61652;-96
2023/03/24 03:17:47;;;;;;;47.60;26.50;;;;;;;7.35;77.76;100872.88;108752;1265;59213;-96
2023/03/24 03:21:35;;;;;;;39.30;25.10;;;;;;;7.55;77.39;100876.91;108705;1259;72658;-93
2023/03/24 03:25:17;;;;;;;39.30;28.40;;;;;;;7.72;76.69;100874.42;108645;1265;64883;-96
2023/03/24 03:32:10;;;;;;;41.50;27.60;;;;;;;7.98;76.06;100883.34;108939;1265;62678;-96
2023/03/24 03:36:31;;;;;;;45.50;26.60;;;;;;;8.15;75.57;100874.77;108901;1265;58897;-95
2023/03/24 03:40:26;;;;;;;48.90;28.10;;;;;;;8.29;75.23;100878.83;108805;1265;73213;-96
2023/03/24 03:44:45;;;;;;;46.50;30.40;;;;;;;8.43;74.70;100871.40;108905;1268;61673;-95
2023/03/24 03:48:18;;;;;;;48.10;28.10;;;;;;;8.54;74.00;100868.80;108574;1273;73486;-96
2023/03/24 04:03:16;;;;;;;46.00;29.00;;;;;;;8.50;73.76;100869.51;108302;1258;65409;-95
2023/03/24 04:06:49;;;;;;;42.30;26.40;;;;;;;8.48;73.67;100870.14;108287;1265;76168;-96
2023/03/24 04:09:23;;;;;;;68.80;44.20;;;;;;;8.55;73.94;100873.83;107791;1265;61765;-94
2023/03/24 04:12:36;;;;;;;46.40;30.80;;;;;;;8.62;73.98;100871.34;108006;1265;60177;-96
2023/03/24 04:15:40;;;;;;;42.60;25.50;;;;;;;8.77;73.66;100874.70;108692;1265;73420;-95
2023/03/24 04:19:38;;;;;;;41.50;25.50;;;;;;;8.91;73.42;100876.42;108851;1265;65208;-96
2023/03/24 04:24:09;;;;;;;42.80;25.70;;;;;;;9.06;72.97;100875.53;108582;1271;71674;-96
2023/03/24 04:28:25;;;;;;;43.30;24.30;;;;;;;9.17;72.28;100878.31;107695;1278;61031;-95
2023/03/24 04:31:36;;;;;;;35.50;25.10;;;;;;;9.29;71.90;100887.83;107565;1279;60193;-95
2023/03/24 04:34:53;;;;;;;51.00;26.70;;;;;;;9.32;71.63;100887.63;107837;1280;72016;-96
2023/03/24 04:37:52;;;;;;;37.60;24.90;;;;;;;9.38;71.35;100897.13;107381;1278;63823;-96
2023/03/24 04:40:35;;;;;;;45.20;25.60;;;;;;;9.42;71.31;100894.86;107475;1278;72825;-96
2023/03/24 04:43:12;;;;;;;45.50;25.10;;;;;;;9.46;71.31;100893.58;107487;1279;59042;-95
2023/03/24 04:46:08;;;;;;;44.10;27.60;;;;;;;9.56;71.20;100886.10;107883;1278;60155;-95
2023/03/24 04:49:13;;;;;;;39.70;26.30;;;;;;;9.66;70.75;100882.10;107420;1280;73583;-95
2023/03/24 04:51:43;;;;;;;36.20;25.60;;;;;;;9.70;70.27;100879.92;107431;1280;64314;-96
2023/03/24 04:54:27;;;;;;;39.00;26.00;;;;;;;9.77;70.12;100879.91;107705;1276;72661;-95
2023/03/24 04:57:04;;;;;;;42.40;26.10;;;;;;;9.83;69.81;100874.70;107857;1277;60042;-96
2023/03/24 04:59:39;;;;;;;40.00;28.40;;;;;;;9.90;69.52;100874.89;107747;1280;60078;-95
2023/03/24 05:02:14;;;;;;;38.70;26.90;;;;;;;9.96;69.38;100877.54;107851;1278;73135;-96
2023/03/24 05:05:10;;;;;;;39.60;28.00;;;;;;;10.00;69.58;100879.27;108095;1268;64286;-93
2023/03/24 05:07:48;;;;;;;41.50;28.20;;;;;;;10.04;69.40;100880.27;108264;1268;72687;-96
2023/03/24 05:10:17;;;;;;;44.10;26.50;;;;;;;10.07;69.55;100882.73;108140;1268;61825;-95
2023/03/24 05:12:58;;;;;;;36.40;24.60;;;;;;;10.11;69.67;100890.52;108490;1268;61256;-94
2023/03/24 05:15:44;;;;;;;34.40;23.90;;;;;;;10.18;69.67;100890.15;108438;1268;73690;-96
2023/03/24 05:18:32;;;;;;;39.30;25.40;;;;;;;10.29;69.39;100895.70;108483;1268;62814;-96
2023/03/24 05:22:18;;;;;;;37.30;25.30;;;;;;;10.39;68.97;100889.25;108308;1263;71816;31
2023/03/24 05:33:54;;;;;;;34.20;22.40;;;;;;;11.09;67.11;100883.20;105546;1267;73721;-94
2023/03/24 05:44:54;;;;;;;32.50;24.30;;;;;;;12.27;64.21;100888.71;108754;1264;59173;-95
2023/03/24 05:47:37;;;;;;;38.10;24.30;;;;;;;12.71;63.18;100885.20;107952;1268;59216;-96
2023/03/24 05:50:19;;;;;;;39.50;24.40;;;;;;;13.09;61.74;100883.14;108442;1266;70874;-96
2023/03/24 05:53:19;;;;;;;36.80;24.20;;;;;;;13.34;60.59;100884.77;108091;1268;63887;-95
2023/03/24 05:56:17;;;;;;;34.90;24.00;;;;;;;13.53;59.67;100887.41;107990;1268;72636;-95
2023/03/24 05:59:17;;;;;;;37.00;22.20;;;;;;;13.61;59.08;100884.76;108401;1268;58843;-96
2023/03/24 06:02:29;;;;;;;30.80;20.90;;;;;;;13.63;58.77;100886.70;108666;1273;59462;-96
2023/03/24 06:12:10;;;;;;;31.10;21.30;;;;;;;14.28;58.27;100897.80;108455;1267;72501;-95
2023/03/24 06:14:39;;;;;;;27.80;20.50;;;;;;;14.96;56.70;100894.13;108536;1267;59672;-95
2023/03/24 06:17:14;;;;;;;29.50;18.60;;;;;;;15.78;54.69;100894.11;108210;1267;61554;-96
2023/03/24 06:20:18;;;;;;;24.60;16.70;;;;;;;16.72;52.34;100891.80;108327;1267;72666;-96
2023/03/24 06:23:09;;;;;;;24.30;17.30;;;;;;;17.48;50.01;100900.34;108343;1267;63844;-96
2023/03/24 06:26:25;;;;;;;22.60;16.50;;;;;;;18.08;48.09;100906.55;108449;1267;72697;-95
2023/03/24 06:29:43;;;;;;;26.60;15.70;;;;;;;18.38;47.33;100909.45;108424;1267;59134;-96
2023/03/24 06:33:05;;;;;;;25.60;15.90;;;;;;;18.49;46.80;100905.14;108524;1271;58238;-95
2023/03/24 06:36:48;;;;;;;23.00;16.40;;;;;;;18.76;46.56;100902.53;108372;1264;72639;-96
2023/03/24 06:40:26;;;;;;;;;;;;;;;;;;;;;
2023/03/24 06:50:02;;;;;;;23.30;13.10;;;;;;;19.02;45.14;100896.97;108693;1261;60850;-95
2023/03/24 06:57:16;;;;;;;24.40;14.70;;;;;;;19.42;44.51;100904.68;107849;1271;62095;-95
2023/03/24 07:04:24;;;;;;;26.60;15.70;;;;;;;19.98;44.14;100899.86;105039;1264;60310;-96
2023/03/24 07:21:15;;;;;;;14.90;9.80;;;;;;;19.86;41.52;100881.03;108367;1264;58890;-95
2023/03/24 07:28:06;;;;;;;19.00;13.00;;;;;;;19.42;41.47;100874.70;108398;1261;73212;-95
2023/03/24 07:32:19;;;;;;;18.40;11.90;;;;;;;19.19;41.53;100877.92;107572;1268;61131;-95
2023/03/24 07:34:52;;;;;;;21.00;13.60;;;;;;;19.05;41.80;100873.71;107967;1268;72317;-96
2023/03/24 07:37:27;;;;;;;22.10;16.10;;;;;;;18.92;41.90;100871.20;107517;1275;60280;-95
2023/03/24 07:40:00;;;;;;;28.30;17.00;;;;;;;18.79;42.15;100869.36;107547;1268;60469;-96
2023/03/24 07:42:31;;;;;;;24.70;13.10;;;;;;;18.73;42.32;100867.20;107460;1275;74935;-96
2023/03/24 07:45:23;;;;;;;23.80;12.40;;;;;;;18.88;42.33;100867.67;107386;1268;62173;-96
2023/03/24 07:48:04;;;;;;;19.30;10.40;;;;;;;19.11;41.46;100863.73;107521;1268;72819;-96
2023/03/24 07:51:02;;;;;;;16.00;11.40;;;;;;;19.38;40.92;100863.88;108370;1268;59111;-96
2023/03/24 07:54:44;;;;;;;;;;;;;;;19.90;40.59;100857.66;108389;1260;59641;-94
2023/03/24 07:58:32;;;;;;;15.30;12.00;;;;;;;20.54;39.21;100855.67;107868;1261;75644;-95
2023/03/24 08:06:08;;;;;;;14.60;8.20;;;;;;;21.13;37.35;100856.19;107979;1268;71771;-96
2023/03/24 08:09:28;;;;;;;11.50;8.20;;;;;;;21.19;36.70;100853.92;107600;1268;60458;-96
2023/03/24 08:11:59;;;;;;;11.90;7.40;;;;;;;21.15;36.35;100855.54;106743;1268;59306;-96
2023/03/24 08:14:44;;;;;;;9.50;6.90;;;;;;;21.10;36.24;100853.36;106503;1275;73714;-96
2023/03/24 08:17:12;;;;;;;14.30;9.00;;;;;;;21.04;36.36;100851.84;106360;1268;63679;-95
2023/03/24 08:19:47;;;;;;;14.80;7.70;;;;;;;21.02;36.70;100846.83;106461;1268;72450;-96
2023/03/24 08:22:48;;;;;;;18.40;8.70;;;;;;;21.01;36.11;100845.73;107760;1268;60388;-96
2023/03/24 08:33:54;;;;;;;16.00;8.60;;;;;;;21.00;35.95;100850.08;106489;1273;59243;-96
2023/03/24 08:36:31;;;;;;;15.30;6.60;;;;;;;21.05;35.73;100842.48;105215;1289;60669;-95
2023/03/24 08:39:05;;;;;;;10.30;7.00;;;;;;;21.15;35.69;100845.20;104334;1291;72173;-94
2023/03/24 08:41:35;;;;;;;12.60;6.50;;;;;;;21.15;35.57;100846.39;99813;1283;8109446;-96
2023/03/24 08:44:03;;;;;;;11.00;6.40;;;;;;;21.09;35.22;100841.52;105694;1280;60706;-96
2023/03/24 08:46:34;;;;;;;13.20;6.00;;;;;;;21.07;35.23;100847.80;105883;1280;60099;-95
2023/03/24 08:49:06;;;;;;;13.40;9.50;;;;;;;21.16;35.33;100846.86;106585;1280;72383;-96
2023/03/24 08:58:23;;;;;;;14.50;8.20;;;;;;;21.46;35.72;100852.86;105861;1280;614256;-96
2023/03/24 09:00:54;;;;;;;11.20;7.60;;;;;;;21.67;34.90;100855.77;106812;1266;60270;-94
2023/03/24 09:03:23;;;;;;;13.10;7.00;;;;;;;21.75;34.14;100852.94;106332;1267;60248;-95
2023/03/24 09:05:55;;;;;;;16.40;8.60;;;;;;;21.77;34.64;100860.22;106780;1265;71882;-95
2023/03/24 09:08:23;;;;;;;9.00;7.50;;;;;;;21.72;34.74;100867.11;106423;1266;62369;-93
2023/03/24 09:10:51;;;;;;;13.60;8.30;;;;;;;21.62;34.73;100866.08;106152;1261;641204;-96
2023/03/24 09:13:20;;;;;;;14.10;8.30;;;;;;;21.54;34.55;100858.66;107896;1251;60221;-94
2023/03/24 09:15:54;;;;;;;15.50;8.70;;;;;;;21.50;35.18;100836.13;106799;1255;60070;-92
2023/03/24 09:19:12;;;;;;;15.00;8.70;;;;;;;21.53;35.74;100831.57;107686;1254;72424;-95
2023/03/24 09:21:44;;;;;;;10.70;7.80;;;;;;;21.73;36.17;100837.90;107097;1258;63673;-96
2023/03/24 09:24:14;;;;;;;22.70;8.60;;;;;;;21.93;36.14;100838.63;107265;1255;72625;-94
2023/03/24 09:26:42;;;;;;;16.00;8.00;;;;;;;22.10;35.67;100837.20;107232;1254;61335;-92
2023/03/24 09:29:09;;;;;;;12.30;10.00;;;;;;;22.14;35.64;100833.52;108311;1259;61365;-93
2023/03/24 09:31:40;;;;;;;11.00;7.80;;;;;;;22.16;35.64;100834.27;108760;1254;72808;-95
2023/03/24 09:34:07;;;;;;;13.70;8.10;;;;;;;22.20;35.97;100831.75;109669;1254;62977;-95
2023/03/24 09:36:37;;;;;;;12.90;7.00;;;;;;;22.30;35.51;100830.87;109443;1255;73346;-93
2023/03/24 09:39:14;;;;;;;12.30;6.90;;;;;;;22.45;34.72;100827.75;108651;1254;60375;-93
2023/03/24 09:41:46;;;;;;;9.00;5.90;;;;;;;22.70;33.98;100821.20;107170;1257;61150;-93
2023/03/24 09:44:44;;;;;;;7.40;5.90;;;;;;;22.86;33.87;100814.98;109030;1256;73019;-93
2023/03/24 09:55:10;;;;;;;10.30;7.90;;;;;;;22.78;33.33;100816.45;106572;1272;61360;-96
2023/03/24 10:00:01;;;;;;;24.30;7.40;;;;;;;22.47;33.37;100813.86;106656;1280;59161;-94
2023/03/24 10:03:22;;;;;;;10.20;5.00;;;;;;;22.28;33.12;100811.10;104243;1289;72934;-95
2023/03/24 10:06:04;;;;;;;10.50;5.80;;;;;;;22.20;33.47;100811.08;104877;1294;63852;-96
2023/03/24 10:08:53;;;;;;;8.50;6.00;;;;;;;22.23;33.59;100809.36;103333;1292;73254;-96
2023/03/24 10:11:34;;;;;;;8.20;4.90;;;;;;;22.36;33.49;100809.03;102907;1303;61461;-90
2023/03/24 10:14:20;;;;;;;;;;;;;;;22.53;33.25;100811.45;103631;1298;59941;-96
2023/03/24 10:16:56;;;;;;;9.20;6.10;;;;;;;22.82;33.13;100811.17;103435;1302;73633;-95
2023/03/24 10:19:42;;;;;;;8.70;6.70;;;;;;;23.23;32.53;100807.75;103703;1297;65145;-96
2023/03/24 10:22:59;;;;;;;8.20;5.80;;;;;;;23.70;31.85;100798.77;103503;1298;73749;-96
2023/03/24 10:25:38;;;;;;;9.50;6.40;;;;;;;24.08;30.82;100793.20;103923;1297;61865;-95
2023/03/24 10:28:34;;;;;;;13.50;6.00;;;;;;;24.21;30.32;100786.52;103990;1296;60319;-96
2023/03/24 10:31:03;;;;;;;8.60;5.30;;;;;;;24.13;30.08;100784.84;104130;1295;74059;-96
2023/03/24 10:33:47;;;;;;;7.70;5.80;;;;;;;23.97;30.15;100780.67;103598;1297;65393;-93
2023/03/24 10:36:20;;;;;;;8.70;5.20;;;;;;;24.00;30.71;100775.44;104803;1294;73064;-95
2023/03/24 10:39:31;;;;;;;12.80;4.80;;;;;;;24.15;30.32;100772.59;105511;1288;61190;-95
2023/03/24 10:42:26;;;;;;;9.70;4.60;;;;;;;24.28;30.61;100770.81;105913;1285;60219;-94
2023/03/24 10:48:47;;;;;;;8.80;4.40;;;;;;;24.86;29.95;100765.77;107147;1275;65292;-96
2023/03/24 10:51:20;;;;;;;;;;;;;;;25.03;29.57;100760.13;105679;1273;72794;-95
2023/03/24 10:53:50;;;;;;;8.50;4.50;;;;;;;25.15;29.38;100760.21;105514;1273;60120;-96
2023/03/24 10:56:38;;;;;;;9.90;5.80;;;;;;;25.13;29.50;100765.20;105738;1274;60375;-95
2023/03/24 10:59:32;;;;;;;9.20;5.80;;;;;;;25.18;29.47;100761.54;106665;1273;73031;-93
2023/03/24 11:02:09;;;;;;;12.50;5.40;;;;;;;25.37;28.79;100756.45;106907;1274;65083;-91
2023/03/24 11:04:39;;;;;;;7.70;4.60;;;;;;;25.47;28.57;100752.23;106436;1274;72461;-93
2023/03/24 11:07:17;;;;;;;6.90;4.00;;;;;;;25.57;28.58;100749.35;106402;1277;60376;-95
2023/03/24 11:09:58;;;;;;;9.70;5.10;;;;;;;25.65;27.97;100753.98;106068;1278;60330;-94
2023/03/24 11:12:36;;;;;;;8.20;4.90;;;;;;;25.70;28.56;100751.94;107214;1273;74059;-93
2023/03/24 11:15:17;;;;;;;9.50;4.90;;;;;;;25.83;27.82;100749.23;105992;1273;64054;-91
2023/03/24 11:17:56;;;;;;;8.70;5.80;;;;;;;25.85;27.89;100745.96;105736;1273;73822;-92
2023/03/24 11:20:35;;;;;;;8.90;4.50;;;;;;;25.80;27.87;100746.20;105644;1274;61382;-94
2023/03/24 11:23:10;;;;;;;8.50;4.80;;;;;;;25.71;28.19;100743.16;106541;1273;59596;-94
2023/03/24 11:25:43;;;;;;;6.60;4.50;;;;;;;25.67;28.30;100738.31;106750;1273;73868;-96
2023/03/24 11:28:22;;;;;;;10.50;5.10;;;;;;;25.74;28.16;100734.59;105969;1277;63839;-94
2023/03/24 11:30:51;;;;;;;8.60;4.70;;;;;;;25.69;28.33;100726.82;106167;1273;72852;-92
2023/03/24 11:33:33;;;;;;;8.00;4.60;;;;;;;25.59;28.70;100719.58;107229;1273;61447;-93
2023/03/24 11:36:34;;;;;;;9.00;4.70;;;;;;;25.49;28.78;100720.33;107525;1273;59544;-95
2023/03/24 11:39:31;;;;;;;7.40;5.20;;;;;;;25.50;29.11;100721.48;107122;1273;72430;-94
2023/03/24 11:42:17;;;;;;;11.70;5.40;;;;;;;25.51;28.63;100725.11;105975;1270;65185;-95
2023/03/24 11:44:50;;;;;;;8.30;5.00;;;;;;;25.53;28.72;100723.55;105625;1270;73855;-93
2023/03/24 11:47:32;;;;;;;8.40;6.10;;;;;;;25.65;28.86;100717.64;105804;1270;60424;-96
2023/03/24 11:50:09;;;;;;;8.10;4.00;;;;;;;25.74;28.31;100715.99;106429;1272;61456;-94
2023/03/24 11:52:48;;;;;;;13.10;5.30;;;;;;;25.77;28.71;100716.08;107521;1270;73940;-91
2023/03/24 11:55:27;;;;;;;10.60;4.40;;;;;;;25.79;28.24;100707.80;106184;1270;64023;-93
2023/03/24 11:58:01;;;;;;;8.80;3.60;;;;;;;25.76;28.06;100710.95;106146;1274;74216;-94
2023/03/24 12:01:03;;;;;;;10.70;6.50;;;;;;;25.66;27.87;100703.02;108209;1270;61389;-92
2023/03/24 12:03:50;;;;;;;8.00;4.80;;;;;;;25.56;28.17;100697.48;106590;1276;60543;-94
2023/03/24 12:07:08;;;;;;;5.70;3.70;;;;;;;25.45;28.16;100692.67;106442;1273;72718;-94
2023/03/24 12:09:50;;;;;;;8.80;5.10;;;;;;;25.21;29.01;100693.27;105604;1280;64900;-92
2023/03/24 12:12:41;;;;;;;7.90;4.30;;;;;;;25.04;28.61;100692.61;105627;1279;72562;-92
2023/03/24 12:15:13;;;;;;;5.60;3.80;;;;;;;24.83;28.92;100692.55;105201;1273;61061;-94
2023/03/24 12:18:01;;;;;;;10.30;5.30;;;;;;;24.51;29.08;100692.96;105934;1274;60868;-92
2023/03/24 12:20:36;;;;;;;14.30;5.50;;;;;;;24.09;29.14;100690.08;106327;1273;74056;-91
2023/03/24 12:23:06;;;;;;;10.20;5.20;;;;;;;23.73;29.73;100690.30;105540;1279;64814;-92
2023/03/24 12:25:56;;;;;;;6.70;4.30;;;;;;;23.49;30.33;100690.31;105460;1274;75666;-95
2023/03/24 12:28:54;;;;;;;13.50;6.00;;;;;;;23.22;30.56;100689.19;105655;1274;60251;-95
2023/03/24 12:31:51;;;;;;;6.70;4.60;;;;;;;23.00;31.06;100687.81;105792;1273;60533;-93
2023/03/24 12:34:38;;;;;;;;;;;;;;;22.83;31.48;100680.74;105605;1274;73033;-93
2023/03/24 12:37:12;;;;;;;9.40;6.40;;;;;;;22.65;31.51;100679.01;105982;1269;65026;-94
2023/03/24 12:39:56;;;;;;;12.70;6.00;;;;;;;22.48;31.29;100687.24;106763;1270;73156;-93
2023/03/24 12:42:23;;;;;;;10.30;6.00;;;;;;;22.29;31.71;100685.58;106606;1272;61460;-96
2023/03/24 12:45:30;;;;;;;6.80;5.00;;;;;;;22.12;31.98;100680.33;106103;1269;61191;-94
2023/03/24 12:48:19;;;;;;;13.80;5.50;;;;;;;21.93;32.02;100678.92;105994;1272;74866;-93
2023/03/24 12:51:12;;;;;;;10.70;6.50;;;;;;;21.69;32.98;100681.83;105974;1270;64368;-94
2023/03/24 12:54:05;;;;;;;10.70;5.30;;;;;;;21.51;33.61;100676.58;106259;1273;72642;-93
2023/03/24 12:56:47;;;;;;;8.30;5.00;;;;;;;21.42;33.71;100676.63;106214;1270;60489;-93
2023/03/24 12:59:47;;;;;;;9.00;4.80;;;;;;;21.29;33.83;100673.19;106361;1271;61189;-93
2023/03/24 13:02:24;;;;;;;10.30;6.40;;;;;;;21.08;33.79;100667.40;106525;1270;73942;-95
2023/03/24 13:05:06;;;;;;;9.90;5.80;;;;;;;20.92;33.95;100662.69;106280;1270;63773;-93
2023/03/24 13:07:46;;;;;;;11.80;5.30;;;;;;;20.74;34.53;100668.91;105858;1274;73766;-94
2023/03/24 13:10:39;;;;;;;6.60;5.40;;;;;;;20.63;34.82;100663.52;105884;1270;61239;-94
2023/03/24 13:13:22;;;;;;;8.90;5.40;;;;;;;20.54;34.91;100660.60;106942;1269;59545;-93
2023/03/24 13:15:56;;;;;;;9.30;5.40;;;;;;;20.41;34.87;100654.58;107492;1269;73080;-96
2023/03/24 13:19:01;;;;;;;15.00;7.00;;;;;;;20.33;35.16;100655.17;108526;1270;62941;-94
2023/03/24 13:21:30;;;;;;;8.70;5.70;;;;;;;20.23;35.51;100650.95;108743;1271;73145;-95
2023/03/24 13:24:28;;;;;;;11.20;5.90;;;;;;;20.12;35.86;100646.41;107004;1269;62511;-96
2023/03/24 13:27:38;;;;;;;10.00;6.10;;;;;;;20.10;36.20;100643.80;106287;1275;60031;-96
2023/03/24 13:30:40;;;;;;;6.90;5.30;;;;;;;20.12;36.13;100640.92;106805;1276;73093;-95
2023/03/24 13:33:43;;;;;;;9.30;5.40;;;;;;;20.14;35.85;100636.95;106692;1285;64875;-94
2023/03/24 13:36:58;;;;;;;14.30;5.10;;;;;;;20.13;35.55;100637.98;107211;1285;72703;-96
2023/03/24 13:39:26;;;;;;;9.80;5.60;;;;;;;20.06;35.45;100637.39;106086;1290;60382;-96
2023/03/24 13:41:57;;;;;;;11.80;6.70;;;;;;;19.98;35.59;100632.16;104406;1292;60597;-95
2023/03/24 13:44:37;;;;;;;11.90;6.90;;;;;;;19.97;35.86;100636.70;104612;1289;74899;-95
2023/03/24 13:47:15;;;;;;;8.10;5.60;;;;;;;19.93;35.49;100636.27;104259;1288;63051;-94
2023/03/24 13:50:11;;;;;;;9.00;5.50;;;;;;;19.84;35.76;100635.48;103986;1288;72568;-95
2023/03/24 13:52:48;;;;;;;14.20;8.20;;;;;;;19.75;35.60;100636.92;104460;1292;60588;-96
2023/03/24 13:55:26;;;;;;;12.60;7.30;;;;;;;19.67;35.73;100635.34;104078;1289;60708;-96
2023/03/24 13:58:00;;;;;;;11.30;6.60;;;;;;;19.60;35.78;100632.66;104914;1290;73952;-96
2023/03/24 14:31:33;;;;;;;11.90;5.50;;;;;;;18.74;37.03;100600.53;106306;1295;59596;-96
2023/03/24 14:38:50;;;;;;;9.80;5.80;;;;;;;18.60;36.63;100590.11;105054;1281;613470;-93
2023/03/24 14:41:43;;;;;;;13.30;7.10;;;;;;;18.51;36.76;100584.98;107256;1259;60413;-93
2023/03/24 14:44:15;;;;;;;10.00;5.80;;;;;;;18.50;36.59;100590.41;106906;1259;59743;-95
2023/03/24 14:46:46;;;;;;;10.70;6.10;;;;;;;18.45;36.58;100594.08;106603;1264;73933;-95
2023/03/24 14:49:33;;;;;;;11.20;5.60;;;;;;;18.41;36.69;100592.30;107008;1261;64034;-95
2023/03/24 14:52:13;;;;;;;15.90;6.20;;;;;;;18.37;36.82;100595.50;107270;1256;813535;-95
2023/03/24 14:54:47;;;;;;;12.30;7.10;;;;;;;18.34;36.77;100597.02;107649;1256;61412;-93
2023/03/24 14:57:40;;;;;;;14.40;8.80;;;;;;;18.29;37.05;100586.33;106794;1261;62556;-95
2023/03/24 15:01:02;;;;;;;15.50;6.20;;;;;;;18.26;36.95;100590.22;107023;1258;73487;-96
2023/03/24 20:55:47;;;;;;;28.50;16.50;;;;;;;12.52;62.86;100688.30;108188;1264;984269;-96
2023/03/24 20:59:27;;;;;;;31.70;17.60;;;;;;;12.42;63.11;100681.73;110024;1252;59327;-94
2023/03/24 21:05:12;;;;;;;28.30;16.10;;;;;;;12.27;63.65;100682.89;111612;1241;72936;-95
2023/03/24 21:09:25;;;;;;;;;;;;;;;;;;;;;
2023/03/24 21:12:35;;;;;;;25.70;14.80;;;;;;;12.08;64.61;100682.27;109950;1251;72430;-94
2023/03/24 21:16:38;;;;;;;27.80;15.80;;;;;;;11.98;64.96;100679.23;111020;1241;61411;-96
2023/03/24 21:19:21;;;;;;;25.60;16.60;;;;;;;11.91;65.21;100675.46;110684;1247;59388;-95
2023/03/24 21:25:45;;;;;;;25.40;15.40;;;;;;;11.84;65.56;100671.70;111289;1241;66112;31
2023/03/24 21:28:19;;;;;;;25.10;15.70;;;;;;;11.82;65.61;100666.69;111308;1244;72741;-96
2023/03/24 21:30:57;;;;;;;28.70;14.10;;;;;;;11.80;65.63;100664.02;111022;1244;62619;-95
2023/03/24 21:33:26;;;;;;;24.00;16.40;;;;;;;11.84;65.61;100663.79;110208;1244;60145;-95
2023/03/24 21:36:36;;;;;;;25.90;15.60;;;;;;;11.82;65.54;100663.20;110834;1244;72731;-93
2023/03/24 21:39:41;;;;;;;25.30;15.70;;;;;;;11.83;65.63;100661.06;110332;1244;62452;-95
2023/03/24 21:42:29;;;;;;;26.50;16.70;;;;;;;11.80;65.80;100667.89;109182;1244;72526;-94
2023/03/24 21:44:56;;;;;;;19.00;15.40;;;;;;;11.78;65.93;100669.95;110299;1244;60817;-95
2023/03/24 21:47:30;;;;;;;24.60;15.80;;;;;;;11.74;66.14;100669.89;109719;1244;61207;-94
2023/03/24 21:50:10;;;;;;;27.80;15.70;;;;;;;11.65;66.48;100662.19;110192;1244;72829;-95
2023/03/24 21:52:59;;;;;;;29.50;16.70;;;;;;;11.63;66.93;100667.92;109927;1242;64647;-96
2023/03/24 21:55:27;;;;;;;23.60;15.20;;;;;;;11.55;67.29;100662.49;109298;1242;72332;-93
2023/03/24 21:57:55;;;;;;;22.50;15.60;;;;;;;11.53;67.83;100659.11;109769;1242;60647;-95
2023/03/24 22:00:43;;;;;;;;;;;;;;;;;;;;;
2023/03/24 22:03:45;;;;;;;25.80;16.20;;;;;;;11.46;68.62;100660.10;110415;1246;71986;-95
2023/03/24 22:06:36;;;;;;;24.80;16.60;;;;;;;11.43;68.74;100663.58;110522;1239;64959;-96
2023/03/24 22:09:12;;;;;;;23.20;17.00;;;;;;;11.41;68.81;100667.21;110247;1248;73433;-95
2023/03/24 22:12:14;;;;;;;24.30;17.20;;;;;;;11.38;68.93;100672.29;110179;1244;59846;-94
2023/03/24 22:15:22;;;;;;;23.30;15.90;;;;;;;11.34;69.15;100669.38;110987;1244;60804;-96
2023/03/24 22:18:09;;;;;;;22.00;16.40;;;;;;;11.29;69.52;100668.33;109917;1244;71618;-94
2023/03/24 22:21:36;;;;;;;21.80;16.00;;;;;;;11.24;69.68;100668.27;110257;1238;63909;-96
2023/03/24 22:24:48;;;;;;;21.50;15.90;;;;;;;11.24;70.07;100671.98;110705;1247;71173;-94
2023/03/24 22:28:01;;;;;;;24.30;15.00;;;;;;;11.22;70.33;100675.94;111066;1248;62180;-95
2023/03/24 22:30:59;;;;;;;22.70;15.20;;;;;;;11.20;70.73;100674.84;111650;1238;59822;-95
2023/03/24 22:34:05;;;;;;;22.50;15.70;;;;;;;11.18;70.88;100669.19;111576;1242;72217;-96
2023/03/24 22:36:47;;;;;;;27.10;15.50;;;;;;;11.16;71.00;100670.48;111521;1242;64103;-94
2023/03/24 22:39:37;;;;;;;20.40;15.60;;;;;;;11.11;71.23;100661.58;111662;1247;73071;-95
2023/03/24 22:42:29;;;;;;;25.00;15.50;;;;;;;11.07;71.39;100667.40;111527;1242;60363;-95
2023/03/24 22:44:57;;;;;;;18.00;14.60;;;;;;;11.02;71.66;100666.86;111692;1243;59887;-96
2023/03/24 22:47:27;;;;;;;23.90;14.50;;;;;;;10.97;71.93;100664.86;109842;1242;73117;-96
2023/03/24 22:50:41;;;;;;;18.50;15.10;;;;;;;10.90;72.24;100667.23;111860;1238;62904;-95
2023/03/24 22:53:34;;;;;;;24.30;14.20;;;;;;;10.86;72.44;100666.60;111856;1238;72317;-95
2023/03/24 22:56:29;;;;;;;23.00;14.60;;;;;;;10.83;72.49;100662.02;110377;1242;63784;-96
2023/03/24 22:59:05;;;;;;;23.40;14.70;;;;;;;10.80;72.59;100656.63;109870;1238;59692;-96
2023/03/24 23:02:02;;;;;;;;;;;;;;;10.82;72.57;100663.16;111212;1238;74661;-95
2023/03/24 23:05:08;;;;;;;22.60;15.80;;;;;;;10.79;72.54;100663.35;111793;1238;63006;-95
2023/03/24 23:07:46;;;;;;;32.50;17.20;;;;;;;10.79;72.42;100666.44;111941;1238;72770;-95
2023/03/24 23:14:30;;;;;;;25.20;16.20;;;;;;;10.65;72.48;100663.48;110453;1244;60079;-94
2023/03/24 23:17:29;;;;;;;25.70;15.20;;;;;;;10.65;72.55;100669.61;111007;1237;72956;-95
2023/03/24 23:21:09;;;;;;;21.20;15.20;;;;;;;10.59;72.62;100667.46;111224;1236;65039;-96
2023/03/24 23:24:02;;;;;;;24.00;16.10;;;;;;;10.57;72.92;100667.27;110303;1241;73389;-96
2023/03/24 23:27:10;;;;;;;25.80;16.10;;;;;;;10.49;73.05;100658.45;111465;1243;58106;-96
2023/03/24 23:29:59;;;;;;;26.50;16.10;;;;;;;10.50;73.12;100658.58;111409;1247;58771;-96
2023/03/24 23:32:33;;;;;;;24.20;15.20;;;;;;;10.48;73.30;100660.25;111261;1248;73496;-96
2023/03/24 23:39:07;;;;;;;25.70;16.70;;;;;;;10.42;73.35;100653.98;111965;1235;73488;-95
2023/03/24 23:42:51;;;;;;;;;;;;;;;;;;;;;
2023/03/24 23:46:29;;;;;;;27.20;15.40;;;;;;;10.30;73.53;100656.80;112319;1234;58741;-94
2023/03/24 23:49:50;;;;;;;25.10;14.80;;;;;;;10.26;73.83;100651.75;111961;1237;71360;-95
2023/03/24 23:52:53;;;;;;;25.30;14.80;;;;;;;10.20;74.19;100648.23;111956;1236;64312;-95
2023/03/24 23:55:59;;;;;;;19.60;12.70;;;;;;;10.17;74.35;100651.91;111592;1241;72283;-95
2023/03/24 23:59:00;;;;;;;21.80;14.40;;;;;;;10.16;74.50;100655.64;111150;1241;59600;-96
